sensor_id;sensor_type;location;lat;lon;timestamp;pressure;altitude;pressure_sealevel;temperature;humidity
63622;BME280;49770;47.544;19.074;2023-02-23T05:12:28;100375.09;;;5.48;90.32
63622;BME280;49770;47.544;19.074;2023-02-23T05:15:31;100375.28;;;5.42;90.55
63622;BME280;49770;47.544;19.074;2023-02-23T05:18:34;100384.84;;;5.44;91.38
63622;BME280;49770;47.544;19.074;2023-02-23T05:21:38;100383.88;;;5.47;90.87
63622;BME280;49770;47.544;19.074;2023-02-23T05:24:41;100379.44;;;5.49;90.37
63622;BME280;49770;47.544;19.074;2023-02-23T05:27:44;100381.19;;;5.48;89.57
63622;BME280;49770;47.544;19.074;2023-02-23T05:30:46;100380.41;;;5.46;89.70
63622;BME280;49770;47.544;19.074;2023-02-23T05:33:49;100384.66;;;5.50;89.41
63622;BME280;49770;47.544;19.074;2023-02-23T05:36:52;100388.00;;;5.56;90.03
63622;BME280;49770;47.544;19.074;2023-02-23T05:39:56;100390.72;;;5.54;88.34
63622;BME280;49770;47.544;19.074;2023-02-23T05:42:59;100388.00;;;5.56;89.00
63622;BME280;49770;47.544;19.074;2023-02-23T05:46:08;100390.56;;;5.59;89.42
63622;BME280;49770;47.544;19.074;2023-02-23T05:49:12;100391.47;;;5.58;88.74
63622;BME280;49770;47.544;19.074;2023-02-23T05:52:15;100394.94;;;5.58;88.18
63622;BME280;49770;47.544;19.074;2023-02-23T05:55:18;100398.25;;;5.66;87.26
63622;BME280;49770;47.544;19.074;2023-02-23T05:58:21;100393.88;;;5.65;87.67
63622;BME280;49770;47.544;19.074;2023-02-23T06:01:25;100407.72;;;5.72;86.13
63622;BME280;49770;47.544;19.074;2023-02-23T06:04:29;100403.72;;;5.59;87.01
63622;BME280;49770;47.544;19.074;2023-02-23T06:07:31;100408.88;;;5.62;87.19
63622;BME280;49770;47.544;19.074;2023-02-23T06:10:35;100411.44;;;5.65;86.68
63622;BME280;49770;47.544;19.074;2023-02-23T06:13:38;100410.63;;;5.63;86.33
63622;BME280;49770;47.544;19.074;2023-02-23T06:16:41;100418.75;;;5.55;86.24
63622;BME280;49770;47.544;19.074;2023-02-23T06:19:46;100414.03;;;5.66;86.18
63622;BME280;49770;47.544;19.074;2023-02-23T06:22:49;100427.09;;;5.70;86.12
63622;BME280;49770;47.544;19.074;2023-02-23T06:25:52;100430.28;;;5.81;84.22
63622;BME280;49770;47.544;19.074;2023-02-23T06:28:57;100429.56;;;5.76;83.79
63622;BME280;49770;47.544;19.074;2023-02-23T06:31:59;100441.00;;;5.75;84.78
63622;BME280;49770;47.544;19.074;2023-02-23T06:35:04;100439.09;;;5.80;84.35
63622;BME280;49770;47.544;19.074;2023-02-23T06:38:07;100442.41;;;5.87;84.52
63622;BME280;49770;47.544;19.074;2023-02-23T06:41:11;100447.44;;;5.94;83.65
63622;BME280;49770;47.544;19.074;2023-02-23T06:44:14;100453.41;;;6.03;83.10
63622;BME280;49770;47.544;19.074;2023-02-23T06:47:17;100459.25;;;6.13;83.02
63622;BME280;49770;47.544;19.074;2023-02-23T06:50:20;100458.41;;;6.11;82.55
63622;BME280;49770;47.544;19.074;2023-02-23T06:53:23;100461.16;;;6.07;81.84
63622;BME280;49770;47.544;19.074;2023-02-23T06:56:26;100459.59;;;6.00;81.83
63622;BME280;49770;47.544;19.074;2023-02-23T06:59:29;100462.16;;;6.02;81.68
63622;BME280;49770;47.544;19.074;2023-02-23T07:02:31;100456.25;;;5.93;81.52
63622;BME280;49770;47.544;19.074;2023-02-23T07:05:34;100464.63;;;6.08;81.68
63622;BME280;49770;47.544;19.074;2023-02-23T07:08:37;100472.91;;;6.26;79.74
63622;BME280;49770;47.544;19.074;2023-02-23T07:11:41;100465.16;;;6.21;79.15
63622;BME280;49770;47.544;19.074;2023-02-23T07:14:46;100466.09;;;6.18;79.21
63622;BME280;49770;47.544;19.074;2023-02-23T07:17:49;100472.00;;;6.27;78.16
63622;BME280;49770;47.544;19.074;2023-02-23T07:20:54;100466.41;;;6.38;77.40
63622;BME280;49770;47.544;19.074;2023-02-23T07:23:57;100471.44;;;6.45;77.05
63622;BME280;49770;47.544;19.074;2023-02-23T07:27:00;100475.22;;;6.65;76.13
63622;BME280;49770;47.544;19.074;2023-02-23T07:30:03;100472.78;;;6.59;75.36
63622;BME280;49770;47.544;19.074;2023-02-23T07:33:06;100472.50;;;6.40;76.01
63622;BME280;49770;47.544;19.074;2023-02-23T07:36:10;100474.06;;;6.45;75.78
63622;BME280;49770;47.544;19.074;2023-02-23T07:39:13;100470.19;;;6.57;75.12
63622;BME280;49770;47.544;19.074;2023-02-23T07:42:16;100479.62;;;6.65;75.53
63622;BME280;49770;47.544;19.074;2023-02-23T07:45:19;100474.19;;;6.69;74.92
63622;BME280;49770;47.544;19.074;2023-02-23T07:48:22;100482.03;;;6.72;74.04
63622;BME280;49770;47.544;19.074;2023-02-23T07:51:24;100474.41;;;6.63;73.86
63622;BME280;49770;47.544;19.074;2023-02-23T07:54:27;100468.28;;;6.63;73.76
63622;BME280;49770;47.544;19.074;2023-02-23T07:57:30;100474.28;;;6.68;74.38
63622;BME280;49770;47.544;19.074;2023-02-23T08:00:35;100476.41;;;6.83;73.25
63622;BME280;49770;47.544;19.074;2023-02-23T08:03:40;100474.56;;;6.85;73.76
63622;BME280;49770;47.544;19.074;2023-02-23T08:06:43;100473.69;;;6.86;73.01
63622;BME280;49770;47.544;19.074;2023-02-23T08:09:49;100473.00;;;7.07;71.89
63622;BME280;49770;47.544;19.074;2023-02-23T08:12:52;100476.84;;;7.23;71.38
63622;BME280;49770;47.544;19.074;2023-02-23T08:15:55;100476.56;;;7.06;70.92
63622;BME280;49770;47.544;19.074;2023-02-23T08:18:59;100477.37;;;7.33;70.77
63622;BME280;49770;47.544;19.074;2023-02-23T08:22:07;100481.09;;;7.53;69.02
63622;BME280;49770;47.544;19.074;2023-02-23T08:25:14;100487.19;;;7.30;68.82
63622;BME280;49770;47.544;19.074;2023-02-23T08:28:17;100478.69;;;7.47;68.29
63622;BME280;49770;47.544;19.074;2023-02-23T08:31:20;100477.09;;;7.43;67.91
63622;BME280;49770;47.544;19.074;2023-02-23T08:34:26;100481.41;;;7.45;68.96
63622;BME280;49770;47.544;19.074;2023-02-23T08:37:29;100490.75;;;7.79;66.48
63622;BME280;49770;47.544;19.074;2023-02-23T08:40:33;100486.34;;;7.54;66.60
63622;BME280;49770;47.544;19.074;2023-02-23T08:43:36;100480.19;;;7.54;66.52
63622;BME280;49770;47.544;19.074;2023-02-23T08:46:40;100487.87;;;7.86;65.91
63622;BME280;49770;47.544;19.074;2023-02-23T08:49:43;100485.59;;;7.76;64.85
63622;BME280;49770;47.544;19.074;2023-02-23T08:52:46;100489.22;;;7.98;64.99
63622;BME280;49770;47.544;19.074;2023-02-23T08:55:54;100501.37;;;8.02;64.68
63622;BME280;49770;47.544;19.074;2023-02-23T08:58:57;100490.41;;;7.89;65.41
63622;BME280;49770;47.544;19.074;2023-02-23T09:02:00;100495.75;;;8.11;63.78
63622;BME280;49770;47.544;19.074;2023-02-23T09:05:03;100496.03;;;8.03;64.83
63622;BME280;49770;47.544;19.074;2023-02-23T09:08:06;100491.69;;;8.02;64.46
63622;BME280;49770;47.544;19.074;2023-02-23T09:11:08;100492.53;;;8.03;64.49
63622;BME280;49770;47.544;19.074;2023-02-23T09:14:11;100495.03;;;8.07;63.83
63622;BME280;49770;47.544;19.074;2023-02-23T09:17:14;100496.09;;;8.02;63.59
63622;BME280;49770;47.544;19.074;2023-02-23T09:20:19;100497.81;;;8.03;63.33
63622;BME280;49770;47.544;19.074;2023-02-23T09:23:28;100502.06;;;8.07;65.63
63622;BME280;49770;47.544;19.074;2023-02-23T09:26:32;100497.94;;;8.23;63.85
63622;BME280;49770;47.544;19.074;2023-02-23T09:29:35;100499.38;;;8.32;62.46
63622;BME280;49770;47.544;19.074;2023-02-23T09:32:39;100497.00;;;8.01;63.01
63622;BME280;49770;47.544;19.074;2023-02-23T09:35:42;100498.22;;;8.40;62.33
63622;BME280;49770;47.544;19.074;2023-02-23T09:38:47;100499.56;;;8.50;62.83
63622;BME280;49770;47.544;19.074;2023-02-23T09:45:21;100496.47;;;9.28;58.79
63622;BME280;49770;47.544;19.074;2023-02-23T09:48:27;100498.66;;;9.80;59.97
63622;BME280;49770;47.544;19.074;2023-02-23T09:51:37;100502.50;;;9.32;58.96
63622;BME280;49770;47.544;19.074;2023-02-23T09:54:42;100503.16;;;9.57;58.31
63622;BME280;49770;47.544;19.074;2023-02-23T09:57:47;100509.19;;;9.61;58.10
63622;BME280;49770;47.544;19.074;2023-02-23T10:07:57;100500.69;;;9.94;56.00
63622;BME280;49770;47.544;19.074;2023-02-23T10:14:46;100502.31;;;9.57;56.68
63622;BME280;49770;47.544;19.074;2023-02-23T10:18:03;100502.94;;;9.83;56.22
63622;BME280;49770;47.544;19.074;2023-02-23T10:21:26;100503.84;;;10.03;55.44
63622;BME280;49770;47.544;19.074;2023-02-23T10:24:42;100501.81;;;10.67;53.83
63622;BME280;49770;47.544;19.074;2023-02-23T10:27:48;100494.22;;;10.59;53.89
63622;BME280;49770;47.544;19.074;2023-02-23T10:30:53;100503.06;;;10.39;53.23
63622;BME280;49770;47.544;19.074;2023-02-23T10:33:59;100495.75;;;10.25;53.67
63622;BME280;49770;47.544;19.074;2023-02-23T10:37:06;100492.19;;;10.45;54.03
63622;BME280;49770;47.544;19.074;2023-02-23T10:40:21;100494.97;;;10.23;53.57
63622;BME280;49770;47.544;19.074;2023-02-23T10:43:24;100482.25;;;10.50;57.23
63622;BME280;49770;47.544;19.074;2023-02-23T10:46:35;100482.00;;;10.55;53.74
63622;BME280;49770;47.544;19.074;2023-02-23T10:49:43;100478.28;;;10.59;53.17
63622;BME280;49770;47.544;19.074;2023-02-23T10:52:48;100481.94;;;10.18;52.92
63622;BME280;49770;47.544;19.074;2023-02-23T10:56:10;100477.69;;;10.14;54.65
63622;BME280;49770;47.544;19.074;2023-02-23T10:59:19;100472.47;;;10.70;53.52
63622;BME280;49770;47.544;19.074;2023-02-23T11:02:24;100462.81;;;10.87;52.77
63622;BME280;49770;47.544;19.074;2023-02-23T11:08:39;100448.22;;;10.96;53.04
63622;BME280;49770;47.544;19.074;2023-02-23T11:11:55;100449.16;;;11.30;51.79
63622;BME280;49770;47.544;19.074;2023-02-23T11:15:24;100451.59;;;11.17;51.18
63622;BME280;49770;47.544;19.074;2023-02-23T11:18:57;100446.50;;;10.38;52.66
63622;BME280;49770;47.544;19.074;2023-02-23T11:22:02;100443.87;;;10.58;54.06
63622;BME280;49770;47.544;19.074;2023-02-23T11:25:26;100442.91;;;10.96;52.51
63622;BME280;49770;47.544;19.074;2023-02-23T11:31:34;100437.69;;;10.57;51.87
63622;BME280;49770;47.544;19.074;2023-02-23T11:34:38;100441.94;;;10.61;53.44
63622;BME280;49770;47.544;19.074;2023-02-23T11:37:43;100443.87;;;10.19;54.30
63622;BME280;49770;47.544;19.074;2023-02-23T11:41:02;100439.53;;;10.74;54.11
63622;BME280;49770;47.544;19.074;2023-02-23T11:44:05;100441.25;;;10.75;54.03
63622;BME280;49770;47.544;19.074;2023-02-23T11:47:20;100440.91;;;10.64;52.53
63622;BME280;49770;47.544;19.074;2023-02-23T11:50:28;100432.16;;;10.44;53.33
63622;BME280;49770;47.544;19.074;2023-02-23T11:53:38;100426.06;;;10.60;54.02
63622;BME280;49770;47.544;19.074;2023-02-23T11:56:47;100417.38;;;10.75;53.67
63622;BME280;49770;47.544;19.074;2023-02-23T11:59:55;100419.66;;;10.46;54.19
63622;BME280;49770;47.544;19.074;2023-02-23T12:03:20;100420.97;;;10.18;55.27
63622;BME280;49770;47.544;19.074;2023-02-23T12:06:44;100412.78;;;10.42;57.04
63622;BME280;49770;47.544;19.074;2023-02-23T12:09:50;100416.00;;;10.49;54.59
63622;BME280;49770;47.544;19.074;2023-02-23T12:13:34;100411.91;;;10.42;57.44
63622;BME280;49770;47.544;19.074;2023-02-23T12:16:47;100403.53;;;10.13;55.04
63622;BME280;49770;47.544;19.074;2023-02-23T12:20:03;100400.88;;;10.32;55.47
63622;BME280;49770;47.544;19.074;2023-02-23T12:23:26;100401.81;;;10.50;54.47
63622;BME280;49770;47.544;19.074;2023-02-23T12:26:34;100397.44;;;10.49;54.69
63622;BME280;49770;47.544;19.074;2023-02-23T12:33:46;100391.50;;;10.24;56.21
63622;BME280;49770;47.544;19.074;2023-02-23T12:36:56;100386.91;;;10.47;55.51
63622;BME280;49770;47.544;19.074;2023-02-23T12:40:27;100377.72;;;10.55;55.34
63622;BME280;49770;47.544;19.074;2023-02-23T12:43:54;100375.16;;;10.53;54.64
63622;BME280;49770;47.544;19.074;2023-02-23T12:47:03;100377.22;;;10.46;54.27
63622;BME280;49770;47.544;19.074;2023-02-23T12:53:40;100374.03;;;10.01;56.26
63622;BME280;49770;47.544;19.074;2023-02-23T12:57:18;100367.81;;;10.02;55.91
63622;BME280;49770;47.544;19.074;2023-02-23T13:16:00;100351.47;;;10.11;56.41
63622;BME280;49770;47.544;19.074;2023-02-23T14:12:38;100311.47;;;10.53;57.33
63622;BME280;49770;47.544;19.074;2023-02-23T14:15:44;100309.69;;;10.54;57.91
63622;BME280;49770;47.544;19.074;2023-02-23T14:19:03;100311.37;;;10.72;57.07
63622;BME280;49770;47.544;19.074;2023-02-23T14:22:24;100313.12;;;10.56;57.14
63622;BME280;49770;47.544;19.074;2023-02-23T14:28:38;100311.19;;;10.40;57.37
63622;BME280;49770;47.544;19.074;2023-02-23T14:38:43;100312.63;;;10.47;58.16
63622;BME280;49770;47.544;19.074;2023-02-23T14:45:30;100307.59;;;10.41;58.14
63622;BME280;49770;47.544;19.074;2023-02-23T14:48:36;100305.06;;;10.40;58.75
63622;BME280;49770;47.544;19.074;2023-02-23T14:51:44;100307.84;;;10.36;58.88
63622;BME280;49770;47.544;19.074;2023-02-23T14:54:51;100310.84;;;10.48;58.59
63622;BME280;49770;47.544;19.074;2023-02-23T14:58:01;100296.97;;;10.60;57.55
63622;BME280;49770;47.544;19.074;2023-02-23T15:01:05;100298.69;;;10.44;58.05
63622;BME280;49770;47.544;19.074;2023-02-23T15:04:25;100311.09;;;10.24;58.65
63622;BME280;49770;47.544;19.074;2023-02-23T15:07:40;100304.81;;;10.27;59.46
63622;BME280;49770;47.544;19.074;2023-02-23T15:10:46;100302.03;;;10.47;58.72
63622;BME280;49770;47.544;19.074;2023-02-23T15:13:51;100297.78;;;10.25;59.91
63622;BME280;49770;47.544;19.074;2023-02-23T15:16:54;100281.00;;;10.25;60.45
63622;BME280;49770;47.544;19.074;2023-02-23T15:20:01;100285.00;;;10.34;60.24
